createdAt,value
2023-01-07T05:00:33.481Z,1.80
2023-01-07T05:11:38.234Z,2.70
2023-01-07T05:22:38.167Z,3.50
2023-01-07T05:33:37.983Z,4.20
2023-01-07T05:44:37.880Z,4.20
2023-01-07T05:55:37.754Z,2.70
2023-01-07T06:06:37.623Z,3.20
2023-01-07T06:17:37.506Z,1.90
2023-01-07T06:28:37.371Z,1.50
2023-01-07T06:39:37.244Z,1.70
2023-01-07T06:50:37.236Z,1.60
2023-01-07T07:01:37.184Z,2.10
2023-01-07T07:12:36.867Z,1.50
2023-01-07T07:23:36.853Z,8.20
2023-01-07T07:34:36.607Z,3.70
2023-01-07T07:45:36.500Z,1.50
2023-01-07T07:56:36.364Z,0.90
2023-01-07T08:07:37.689Z,1.40
2023-01-07T08:18:36.139Z,1.50
2023-01-07T08:29:35.994Z,4.40
2023-01-07T08:40:35.853Z,0.80
2023-01-07T08:51:35.728Z,1.20
2023-01-07T09:02:35.639Z,2.00
2023-01-07T09:13:35.494Z,1.40
2023-01-07T09:24:35.351Z,0.80
2023-01-07T09:35:35.218Z,1.40
2023-01-07T09:46:35.216Z,1.00
2023-01-07T09:57:34.989Z,2.10
2023-01-07T10:08:34.848Z,1.20
2023-01-07T10:19:34.723Z,1.20
2023-01-07T10:30:34.598Z,1.30
2023-01-07T10:41:34.477Z,1.40
2023-01-07T10:52:34.358Z,1.30
2023-01-07T11:03:34.225Z,1.20
2023-01-07T11:14:34.131Z,0.70
2023-01-07T11:25:34.007Z,0.90
2023-01-07T11:36:33.892Z,0.70
2023-01-07T11:47:33.723Z,1.50
2023-01-07T11:58:33.626Z,1.20
2023-01-07T12:09:33.580Z,1.60
2023-01-07T12:20:33.382Z,0.70
2023-01-07T12:31:33.456Z,0.80
2023-01-07T12:42:33.113Z,2.20
2023-01-07T12:53:33.008Z,0.70
2023-01-07T13:04:32.868Z,1.10
2023-01-07T13:15:32.721Z,1.20
2023-01-07T13:26:32.632Z,0.80
2023-01-07T13:37:32.483Z,2.00
2023-01-07T13:48:32.349Z,1.70
2023-01-07T13:59:32.227Z,1.50
2023-01-07T14:10:32.098Z,2.20
2023-01-07T14:21:31.979Z,2.20
2023-01-07T14:32:31.874Z,4.20
2023-01-07T14:43:31.758Z,3.10
2023-01-07T14:54:31.709Z,2.10
2023-01-07T15:05:31.512Z,2.30
2023-01-07T15:16:31.410Z,2.40
2023-01-07T15:27:31.225Z,2.00
2023-01-07T15:38:31.120Z,1.90
2023-01-07T15:49:30.988Z,4.00
2023-01-07T16:00:30.864Z,3.30
2023-01-07T16:11:30.742Z,3.00
2023-01-07T16:22:30.615Z,3.90
2023-01-07T16:33:30.489Z,3.40
2023-01-07T16:44:30.368Z,3.10
2023-01-07T16:55:30.354Z,3.50
2023-01-07T17:06:30.156Z,6.20
2023-01-07T17:17:29.975Z,7.00
2023-01-07T17:28:29.851Z,7.40
2023-01-07T17:39:29.787Z,8.40
2023-01-07T17:50:29.612Z,6.80
2023-01-07T18:01:29.585Z,7.80
2023-01-07T18:12:29.386Z,4.20
2023-01-07T18:23:29.354Z,6.60
2023-01-07T18:34:29.142Z,4.00
2023-01-07T18:45:29.050Z,6.00
2023-01-07T18:56:28.858Z,3.50
2023-01-07T19:07:28.738Z,4.70
2023-01-07T19:18:28.724Z,3.80
2023-01-07T19:29:28.472Z,5.00
2023-01-07T19:40:28.352Z,5.00
2023-01-07T19:51:28.233Z,6.10
2023-01-07T20:02:28.299Z,6.90
2023-01-07T20:13:27.993Z,5.10
2023-01-07T20:24:27.863Z,7.30
2023-01-07T20:35:27.745Z,4.30
2023-01-07T20:46:27.635Z,6.90
2023-01-07T20:57:27.480Z,4.50
2023-01-07T21:08:27.371Z,8.90
2023-01-07T21:19:28.248Z,5.90
2023-01-07T21:30:27.108Z,4.30
2023-01-07T21:41:27.195Z,5.70
2023-01-07T21:52:26.856Z,7.50
